Flight Track Log - Related Links

Times and Time Zones

All times are in EDT time to prevent confusion due to time zone crossing. See the AAL1278 flight status page for this flight to view local times or setup timezone preferences in your user account.

Time Position Orientation Groundspeed Altitude Reporting Facility
EDT Latitude Longitude Course Direction KTS MPH feet Rate Location/Type
Thu 07:58:40 PM 33.9089 -118.4739 90° East 207 238 2,400  Level Los Angeles Center
Thu 07:59:42 PM 33.8406 -118.4878 190° South 250 288 3,500 1,584 Climbing Los Angeles Center
Thu 08:00:00 PM 33.7434 -118.5918 134° Southeast  Level FlightAware Approximate
Thu 08:00:45 PM 33.7661 -118.5061 192° South 281 323 5,700  Level Los Angeles Center
Thu 08:01:00 PM 33.6738 -118.4596 101° East  Level FlightAware Approximate
Thu 08:01:47 PM 33.6931 -118.4942 172° South 288 331 8,300  Level Los Angeles Center
Thu 08:02:00 PM 33.6333 -118.3093 90° East  Level FlightAware Approximate
Thu 08:02:49 PM 33.6569 -118.3875 112° Southeast 294 338 10,900  Level Los Angeles Center
Thu 08:03:00 PM 33.6333 -118.1471 90° East  Level FlightAware Approximate
Thu 08:03:51 PM 33.6431 -118.2764 99° East 344 396 12,600  Level Los Angeles Center
Thu 08:04:53 PM 33.6464 -118.1561 88° East 363 418 14,800 2,323 Climbing Los Angeles Center
Thu 08:05:55 PM 33.6447 -118.0261 91° East 393 452 17,400 2,419 Climbing Los Angeles Center
Thu 08:06:57 PM 33.6467 -117.8619 89° East 412 474 19,800 2,129 Climbing Los Angeles Center
Thu 08:07:59 PM 33.6439 -117.7158 91° East 436 502 21,800 1,597 Climbing Los Angeles Center
Thu 08:09:01 PM 33.6431 -117.5642 90° East 453 521 23,100 1,440 Climbing Los Angeles Center
Thu 08:10:04 PM 33.6422 -117.4108 90° East 459 528 24,800 1,584 Climbing Los Angeles Center
Thu 08:11:06 PM 33.6419 -117.2525 90° East 474 545 26,400 1,548 Climbing Los Angeles Center
Thu 08:12:08 PM 33.6394 -117.0569 91° East 490 564 28,000 1,306 Climbing Los Angeles Center
Thu 08:13:10 PM 33.6400 -116.8883 90° East 505 581 29,100 1,147 Climbing Los Angeles Center
Thu 08:14:24 PM 33.6614 -116.7306 81° East 517 595 30,600 1,533 Climbing Los Angeles Center
Thu 08:15:27 PM 33.7044 -116.5331 75° East 507 583 32,600 1,680 Climbing Los Angeles Center
Thu 08:16:29 PM 33.7475 -116.3378 75° East 503 579 34,100 1,258 Climbing Los Angeles Center
Thu 08:17:31 PM 33.7839 -116.1731 75° East 508 585 35,200 1,113 Climbing Los Angeles Center
Thu 08:18:33 PM 33.8192 -116.0108 75° East 504 580 36,400 871 Climbing Los Angeles Center
Thu 08:19:35 PM 33.8536 -115.8497 76° East 497 572 37,000 290 Climbing Los Angeles Center
Thu 08:20:37 PM 33.8892 -115.6869 75° East 501 577 37,000 -48 Level Los Angeles Center
Thu 08:21:39 PM 33.9242 -115.5267 75° East 497 572 36,900  Descending Los Angeles Center
Thu 08:22:41 PM 33.9644 -115.3331 76° East 496 571 37,000 48 Climbing Los Angeles Center
Thu 08:23:43 PM 33.9981 -115.1736 76° East 494 568 37,000 -48 Level Los Angeles Center
Thu 08:24:45 PM 34.0319 -115.0122 76° East 495 570 36,900  Descending Los Angeles Center
Thu 08:25:47 PM 34.0658 -114.8528 76° East 493 567 37,000  Climbing Los Angeles Center
Thu 08:26:50 PM 34.0989 -114.6942 76° East 489 563 36,900  Descending Los Angeles Center
Thu 08:27:52 PM 34.1425 -114.5400 71° East 487 560 37,000 48 Climbing Los Angeles Center
Thu 08:28:54 PM 34.1961 -114.3508 71° East 496 571 37,000  Level Los Angeles Center
Thu 08:29:15 PM 34.2083 -114.3033 73° East 495 570 37,000  Level Albuquerque Center
Thu 08:30:17 PM 34.2525 -114.1458 71° East 495 570 37,000  Level Albuquerque Center
Thu 08:31:19 PM 34.2972 -113.9864 71° East 497 572 37,000  Level Albuquerque Center
Thu 08:32:20 PM 34.3419 -113.8256 71° East 500 575 37,000  Level Albuquerque Center
Thu 08:33:22 PM 34.3864 -113.6653 71° East 502 578 37,000  Level Albuquerque Center
Thu 08:34:24 PM 34.4386 -113.4753 72° East 506 582 37,000  Level Albuquerque Center
Thu 08:35:26 PM 34.4814 -113.3139 72° East 507 583 37,000  Level Albuquerque Center
Thu 08:36:28 PM 34.5242 -113.1506 72° East 510 587 37,000  Level Albuquerque Center
Thu 08:37:29 PM 34.5675 -112.9900 72° East 508 585 37,000  Level Albuquerque Center
Thu 08:38:31 PM 34.6108 -112.8289 72° East 509 586 37,000  Level Albuquerque Center
Thu 08:39:33 PM 34.6622 -112.6369 72° East 505 581 37,000  Level Albuquerque Center
Thu 08:40:34 PM 34.7033 -112.4767 73° East 503 579 37,000  Level Albuquerque Center
Thu 08:41:36 PM 34.7417 -112.3164 74° East 502 578 37,000  Level Albuquerque Center
Thu 08:42:38 PM 34.7772 -112.1536 75° East 501 577 37,000  Level Albuquerque Center
Thu 08:43:39 PM 34.8147 -111.9919 74° East 503 579 37,000  Level Albuquerque Center
Thu 08:44:41 PM 34.8511 -111.8286 75° East 503 579 37,000  Level Albuquerque Center
Thu 08:45:43 PM 34.8933 -111.6372 75° East 505 581 37,000  Level Albuquerque Center
Thu 08:46:44 PM 34.9311 -111.4692 75° East 511 588 37,000  Level Albuquerque Center
Thu 08:47:46 PM 34.9678 -111.3025 75° East 510 587 37,000  Level Albuquerque Center
Thu 08:48:48 PM 35.0044 -111.1353 75° East 510 587 37,000  Level Albuquerque Center
Thu 08:49:50 PM 35.0406 -110.9678 75° East 510 587 37,000  Level Albuquerque Center
Thu 08:50:51 PM 35.0817 -110.7758 75° East 507 583 37,000  Level Albuquerque Center
Thu 08:51:53 PM 35.1158 -110.6167 75° East 506 582 37,000  Level Albuquerque Center
Thu 08:52:55 PM 35.1556 -110.4311 75° East 506 582 37,000  Level Albuquerque Center
Thu 08:53:56 PM 35.1886 -110.2733 76° East 503 579 37,000  Level Albuquerque Center
Thu 08:54:58 PM 35.2292 -110.0872 75° East 506 582 37,000  Level Albuquerque Center
Thu 08:56:00 PM 35.2631 -109.9261 76° East 510 587 37,000  Level Albuquerque Center
Thu 08:57:01 PM 35.2964 -109.7639 76° East 514 592 37,000  Level Albuquerque Center
Thu 08:58:03 PM 35.3350 -109.5739 76° East 516 594 37,000  Level Albuquerque Center
Thu 08:59:05 PM 35.3675 -109.4111 76° East 517 595 37,000  Level Albuquerque Center
Thu 09:00:08 PM 35.4067 -109.2219 76° East 515 593 37,000  Level Albuquerque Center
Thu 09:01:09 PM 35.4383 -109.0608 76° East 513 590 37,000  Level Albuquerque Center
Thu 09:02:11 PM 35.4761 -108.8711 76° East 514 592 37,000  Level Albuquerque Center
Thu 09:03:13 PM 35.5183 -108.7144 72° East 511 588 37,000  Level Albuquerque Center
Thu 09:04:14 PM 35.5692 -108.5294 71° East 514 592 37,000  Level Albuquerque Center
Thu 09:05:16 PM 35.6133 -108.3703 71° East 516 594 37,000  Level Albuquerque Center
Thu 09:06:18 PM 35.6622 -108.1853 72° East 513 590 37,000  Level Albuquerque Center
Thu 09:07:19 PM 35.7042 -108.0286 72° East 509 586 37,000  Level Albuquerque Center
Thu 09:08:21 PM 35.7522 -107.8442 72° East 509 586 37,000  Level Albuquerque Center
Thu 09:09:22 PM 35.7939 -107.6864 72° East 508 585 37,000  Level Albuquerque Center
Thu 09:10:24 PM 35.8364 -107.5278 72° East 509 586 37,000  Level Albuquerque Center
Thu 09:11:26 PM 35.8842 -107.3411 72° East 512 589 37,000  Level Albuquerque Center
Thu 09:12:27 PM 35.9244 -107.1828 73° East 513 590 37,000  Level Albuquerque Center
Thu 09:13:29 PM 35.9689 -107.0142 72° East 515 593 37,000  Level Albuquerque Center
Thu 09:14:30 PM 36.0119 -106.8442 73° East 516 594 37,000  Level Albuquerque Center
Thu 09:15:32 PM 36.0556 -106.6742 72° East 517 595 37,000  Level Albuquerque Center
Thu 09:16:34 PM 36.0986 -106.5044 73° East 517 595 37,000  Level Albuquerque Center
Thu 09:17:35 PM 36.1500 -106.2997 73° East 517 595 37,000  Level Albuquerque Center
Thu 09:18:37 PM 36.1917 -106.1297 73° East 516 594 37,000  Level Albuquerque Center
Thu 09:19:38 PM 36.2353 -105.9586 72° East 519 597 37,000  Level Albuquerque Center
Thu 09:20:40 PM 36.2750 -105.7850 74° East 522 601 37,000  Level Albuquerque Center
Thu 09:21:42 PM 36.3156 -105.6144 74° East 518 596 37,000  Level Albuquerque Center
Thu 09:22:43 PM 36.3628 -105.4222 73° East 515 593 37,000  Level Albuquerque Center
Thu 09:23:45 PM 36.4028 -105.2506 74° East 514 592 37,000  Level Albuquerque Center
Thu 09:24:46 PM 36.4431 -105.0781 74° East 514 592 37,000  Level Albuquerque Center
Thu 09:25:48 PM 36.4844 -104.9044 73° East 517 595 37,000  Level Albuquerque Center
Thu 09:26:50 PM 36.5406 -104.7369 67° East 521 600 37,000  Level Albuquerque Center
Thu 09:27:51 PM 36.6003 -104.5747 65° Northeast 513 590 37,000  Level Albuquerque Center
Thu 09:28:53 PM 36.6594 -104.4131 65° Northeast 511 588 37,000  Level Albuquerque Center
Thu 09:29:54 PM 36.7228 -104.2381 66° East 510 587 37,000  Level Albuquerque Center
Thu 09:30:56 PM 36.7786 -104.0844 66° East 509 586 37,000  Level Albuquerque Center
Thu 09:31:57 PM 36.8425 -103.9058 66° East 508 585 37,000  Level Albuquerque Center
Thu 09:32:59 PM 36.8981 -103.7506 66° East 511 588 37,000  Level Albuquerque Center
Thu 09:34:00 PM 36.9631 -103.5672 66° East 516 594 37,000  Level Albuquerque Center
Thu 09:35:02 PM 37.0194 -103.4078 66° East 524 603 37,000  Level Albuquerque Center
Thu 09:36:03 PM 37.0744 -103.2489 67° East 523 602 37,000  Level Albuquerque Center
Thu 09:37:05 PM 37.1389 -103.0628 66° East 523 602 37,000  Level Albuquerque Center
Thu 09:38:06 PM 37.1944 -102.9050 66° East 521 600 37,000 49 Level Albuquerque Center
Thu 09:39:08 PM 37.2567 -102.7233 67° East 511 588 37,100 488 Climbing Albuquerque Center
Thu 09:40:09 PM 37.3111 -102.5664 66° East 512 589 38,000 780 Climbing Albuquerque Center
Thu 09:41:11 PM 37.3736 -102.3825 67° East 512 589 38,700 488 Climbing Albuquerque Center
Thu 09:42:12 PM 37.4286 -102.2164 67° East 516 594 39,000 146 Climbing Albuquerque Center
Thu 09:43:14 PM 37.4817 -102.0589 67° East 513 590 39,000  Level Albuquerque Center
Thu 09:45:05 PM 37.5861 -101.7439 67° East 509 586 39,000  Level Kansas City Center
Thu 09:46:09 PM 37.6386 -101.5839 67° East 514 592 39,000  Level Kansas City Center
Thu 09:47:09 PM 37.7000 -101.3958 68° East 517 595 39,000  Level Kansas City Center
Thu 09:48:09 PM 37.7539 -101.2353 67° East 517 595 39,000  Level Kansas City Center
Thu 09:49:14 PM 37.8069 -101.0722 68° East 518 596 39,000  Level Kansas City Center
Thu 09:50:14 PM 37.8700 -100.8808 67° East 519 597 39,000  Level Kansas City Center
Thu 09:51:15 PM 37.9228 -100.7156 68° East 522 601 39,000  Level Kansas City Center
Thu 09:52:16 PM 37.9769 -100.5536 67° East 521 600 39,000  Level Kansas City Center
Thu 09:53:20 PM 38.0414 -100.3661 66° East 519 597 39,000  Level Kansas City Center
Thu 09:54:21 PM 38.0958 -100.2033 67° East 520 598 39,000  Level Kansas City Center
Thu 09:55:21 PM 38.1581 -100.0131 67° East 523 602 39,000  Level Kansas City Center
Thu 09:56:22 PM 38.2136 -99.8494 67° East 525 604 39,000  Level Kansas City Center
Thu 09:57:24 PM 38.2692 -99.6822 67° East 533 613 39,000  Level Kansas City Center
Thu 09:58:27 PM 38.3292 -99.4956 68° East 533 613 39,000  Level Kansas City Center
Thu 09:59:29 PM 38.3853 -99.3214 68° East 531 611 39,000  Level Kansas City Center
Thu 10:00:29 PM 38.4425 -99.1472 67° East 531 611 39,000  Level Kansas City Center
Thu 10:01:29 PM 38.4989 -98.9733 67° East 530 610 39,000  Level Kansas City Center
Thu 10:02:33 PM 38.5556 -98.8000 67° East 529 609 39,000  Level Kansas City Center
Thu 10:03:33 PM 38.6117 -98.6253 68° East 530 610 39,000  Level Kansas City Center
Thu 10:04:35 PM 38.6672 -98.4494 68° East 530 610 39,000  Level Kansas City Center
Thu 10:05:38 PM 38.7336 -98.2375 68° East 531 611 39,000  Level Kansas City Center
Thu 10:06:38 PM 38.7892 -98.0608 68° East 532 612 39,000  Level Kansas City Center
Thu 10:07:39 PM 38.8456 -97.8825 68° East 536 617 39,000  Level Kansas City Center
Thu 10:08:42 PM 38.9003 -97.7044 68° East 537 618 39,000  Level Kansas City Center
Thu 10:09:43 PM 38.9561 -97.5089 70° East 537 618 39,000  Level Kansas City Center
Thu 10:10:44 PM 39.0031 -97.3294 71° East 538 619 39,000  Level Kansas City Center
Thu 10:11:46 PM 39.0492 -97.1550 71° East 539 620 39,000  Level Kansas City Center
Thu 10:12:47 PM 39.1019 -96.9503 72° East 539 620 39,000  Level Kansas City Center
Thu 10:13:50 PM 39.1483 -96.7747 71° East 540 621 39,000  Level Kansas City Center
Thu 10:14:51 PM 39.1944 -96.5992 71° East 541 623 39,000  Level Kansas City Center
Thu 10:15:51 PM 39.2433 -96.3958 73° East 533 613 39,000  Level Kansas City Center
Thu 10:16:55 PM 39.2922 -96.2089 71° East 531 611 39,000  Level Kansas City Center
Thu 10:17:55 PM 39.3381 -96.0200 73° East 529 609 39,000  Level Kansas City Center
Thu 10:18:56 PM 39.3811 -95.8475 72° East 526 605 39,000  Level Kansas City Center
Thu 10:19:57 PM 39.4242 -95.6739 72° East 526 605 39,000  Level Kansas City Center
Thu 10:21:00 PM 39.4756 -95.4633 72° East 524 603 39,000  Level Kansas City Center
Thu 10:22:02 PM 39.5192 -95.2842 72° East 523 602 39,000  Level Kansas City Center
Thu 10:23:02 PM 39.5575 -95.1250 73° East 519 597 39,000  Level Kansas City Center
Thu 10:24:02 PM 39.6064 -94.9242 72° East 520 598 39,000  Level Kansas City Center
Thu 10:25:06 PM 39.6464 -94.7525 73° East 518 596 39,000  Level Kansas City Center
Thu 10:26:06 PM 39.6886 -94.5806 72° East 521 600 39,000  Level Kansas City Center
Thu 10:27:08 PM 39.7353 -94.3786 73° East 522 601 39,000  Level Kansas City Center
Thu 10:28:08 PM 39.7753 -94.2072 73° East 517 595 39,000  Level Kansas City Center
Thu 10:29:09 PM 39.8219 -93.9969 74° East 528 608 39,000  Level Kansas City Center
Thu 10:30:13 PM 39.8600 -93.8214 74° East 524 603 39,000  Level Kansas City Center
Thu 10:31:14 PM 39.9125 -93.6514 68° East 514 592 39,000  Level Kansas City Center
Thu 10:32:15 PM 39.9636 -93.4794 69° East 514 592 39,000  Level Kansas City Center
Thu 10:33:15 PM 40.0131 -93.3061 70° East 515 593 39,000  Level Kansas City Center
Thu 10:34:19 PM 40.0633 -93.1350 69° East 513 590 39,000  Level Kansas City Center
Thu 10:35:19 PM 40.1211 -92.9464 68° East 509 586 39,000  Level Kansas City Center
Thu 10:36:20 PM 40.1683 -92.7789 70° East 511 588 39,000  Level Kansas City Center
Thu 10:37:21 PM 40.2222 -92.5842 70° East 510 587 39,000  Level Kansas City Center
Thu 10:38:23 PM 40.2714 -92.4164 69° East 513 590 39,000  Level Kansas City Center
Thu 10:39:24 PM 40.3211 -92.2447 69° East 532 612 39,000  Level Kansas City Center
Thu 10:40:25 PM 40.3803 -92.0328 70° East 526 605 39,000  Level Kansas City Center
Thu 10:41:26 PM 40.4286 -91.8567 70° East 521 600 39,000 -435 Level Kansas City Center
Thu 10:42:29 PM 40.4767 -91.6808 70° East 518 596 38,100 -1,625 Descending Kansas City Center
Thu 10:43:02 PM 40.5061 -91.5761 70° East 515 593 36,400 -3,064 Descending Chicago Center
Thu 10:44:03 PM 40.5556 -91.3981 70° East 520 598 33,300 -1,659 Descending Chicago Center
Thu 10:45:05 PM 40.6200 -91.2108 66° East 536 617 33,000 -146 Descending Chicago Center
Thu 10:46:06 PM 40.6803 -91.0328 66° East 533 613 33,000  Level Chicago Center
Thu 10:47:07 PM 40.7411 -90.8550 66° East 531 611 33,000  Level Chicago Center
Thu 10:48:08 PM 40.8008 -90.6781 66° East 527 606 33,000 -295 Level Chicago Center
Thu 10:49:09 PM 40.8594 -90.5028 66° East 521 600 32,400 -780 Descending Chicago Center
Thu 10:50:11 PM 40.9189 -90.3294 66° East 516 594 31,400 -927 Descending Chicago Center
Thu 10:51:12 PM 40.9733 -90.1597 67° East 506 582 30,500 -934 Descending Chicago Center
Thu 10:52:13 PM 41.0306 -89.9878 66° East 497 572 29,500 -1,574 Descending Chicago Center
Thu 10:53:14 PM 41.0861 -89.8194 66° East 490 564 27,300 -2,213 Descending Chicago Center
Thu 10:54:15 PM 41.1375 -89.6597 67° East 471 542 25,000 -2,311 Descending Chicago Center
Thu 10:55:16 PM 41.1914 -89.5114 64° Northeast 448 516 22,600 -2,361 Descending Chicago Center
Thu 10:56:17 PM 41.2608 -89.3408 62° Northeast 437 503 20,200 -2,098 Descending Chicago Center
Thu 10:57:19 PM 41.3158 -89.2036 62° Northeast 422 486 18,300 -1,659 Descending Chicago Center
Thu 10:58:20 PM 41.3622 -89.0822 63° Northeast 410 472 16,800 -1,721 Descending Chicago Center
Thu 10:59:21 PM 41.4150 -88.9533 61° Northeast 400 460 14,800 -1,869 Descending Chicago Center
Thu 11:00:22 PM 41.4636 -88.8300 62° Northeast 381 438 13,000 -1,475 Descending Chicago Center
Thu 11:01:23 PM 41.5211 -88.6844 62° Northeast 374 430 11,800 -934 Descending Chicago Center
Thu 11:02:24 PM 41.5669 -88.5675 62° Northeast 358 412 11,100 -341 Descending Chicago Center
Thu 11:03:26 PM 41.6153 -88.4539 60° Northeast 353 406 11,100  Level Chicago Center
Thu 11:04:27 PM 41.6761 -88.3511 52° Northeast 352 405 11,100  Level Chicago Center
Thu 11:05:28 PM 41.7367 -88.2478 52° Northeast 352 405 11,100  Level Chicago Center
Thu 11:06:29 PM 41.7961 -88.1442 52° Northeast 352 405 11,100 -197 Level Chicago Center
Thu 11:07:30 PM 41.8494 -88.0506 53° Northeast 322 371 10,700 -938 Descending Chicago Center
Thu 11:08:05 PM 41.8833 -88.0000 48° Northeast 294 338 9,600 -1,307 Descending Chicago TRACON
Thu 11:09:11 PM 41.8833 -87.8667 90° East 294 338 8,500 -1,095 Descending Chicago TRACON
Thu 11:10:11 PM 41.8833 -87.7667 90° East 277 319 7,300 -1,316 Descending Chicago TRACON
Thu 11:11:05 PM 41.8833 -87.6833 90° East 253 291 6,000 -1,579 Descending Chicago TRACON
Thu 11:12:05 PM 41.9333 -87.6333 37° Northeast 230 265 4,300 -1,700 Descending Chicago TRACON

Login

Don't have an account? Register now (free) for customized features, flight alerts, and more!